createdAt,value
2018-09-06T00:02:25.717Z,100383.59
2018-09-06T00:07:37.992Z,100384.84
2018-09-06T00:10:09.215Z,100384.23
2018-09-06T00:12:40.398Z,100386.21
2018-09-06T00:15:11.666Z,100377.39
2018-09-06T00:17:43.214Z,100385.06
2018-09-06T00:20:14.453Z,100376.02
2018-09-06T00:22:45.643Z,100379.47
2018-09-06T00:25:16.780Z,100378.41
2018-09-06T00:27:47.906Z,100380.62
2018-09-06T00:33:05.437Z,100374.84
2018-09-06T00:35:36.806Z,100374.19
2018-09-06T00:38:08.456Z,100372.52
2018-09-06T00:40:39.707Z,100376.73
2018-09-06T00:43:10.763Z,100370.62
2018-09-06T00:45:41.980Z,100375.56
2018-09-06T00:48:13.005Z,100372.52
2018-09-06T00:50:44.194Z,100378.83
2018-09-06T00:53:15.406Z,100375.14
2018-09-06T00:55:46.750Z,100372.81
2018-09-06T00:58:17.778Z,100370.58
2018-09-06T01:00:48.986Z,100370.69
2018-09-06T01:03:20.047Z,100366.47
2018-09-06T01:05:52.878Z,100375.21
2018-09-06T01:08:23.896Z,100372.81
2018-09-06T01:10:54.894Z,100368.91
2018-09-06T01:13:25.893Z,100362.28
2018-09-06T01:15:57.484Z,100365.11
2018-09-06T01:18:28.656Z,100370.49
2018-09-06T01:21:00.304Z,100363.66
2018-09-06T01:23:31.539Z,100358.91
2018-09-06T01:26:02.804Z,100353.73
2018-09-06T01:28:33.541Z,100344.16
2018-09-06T01:31:05.488Z,100349.64
2018-09-06T01:33:36.708Z,100345.23
2018-09-06T01:36:13.208Z,100343.21
2018-09-06T01:38:44.371Z,100343.86
2018-09-06T01:41:15.684Z,100346.48
2018-09-06T01:43:46.682Z,100344.70
2018-09-06T01:46:18.226Z,100344.27
2018-09-06T01:48:49.489Z,100336.06
2018-09-06T01:51:20.681Z,100338.46
2018-09-06T01:53:51.720Z,100331.96
2018-09-06T01:56:22.780Z,100329.53
2018-09-06T01:58:53.582Z,100328.70
2018-09-06T02:01:24.414Z,100329.61
2018-09-06T02:03:56.795Z,100329.95
2018-09-06T02:06:27.534Z,100321.40
2018-09-06T02:08:58.486Z,100319.42
2018-09-06T02:11:29.690Z,100318.89
2018-09-06T02:14:00.759Z,100312.58
2018-09-06T02:16:31.631Z,100316.46
2018-09-06T02:19:02.696Z,100305.22
2018-09-06T02:21:33.709Z,100307.42
2018-09-06T02:24:04.800Z,100298.91
2018-09-06T02:26:35.866Z,100289.95
2018-09-06T02:29:06.856Z,100291.08
2018-09-06T02:31:37.845Z,100287.32
2018-09-06T02:34:09.834Z,100288.27
2018-09-06T02:36:40.798Z,100284.89
2018-09-06T02:41:56.612Z,100286.07
2018-09-06T02:44:27.709Z,100282.88
2018-09-06T02:46:58.720Z,100277.22
2018-09-06T02:49:35.222Z,100276.38
2018-09-06T02:52:06.346Z,100276.69
2018-09-06T02:54:37.546Z,100280.67
2018-09-06T02:57:08.614Z,100274.29
2018-09-06T02:59:39.693Z,100272.05
2018-09-06T03:02:10.734Z,100275.02
2018-09-06T03:04:41.824Z,100270.07
2018-09-06T03:07:12.811Z,100276.69
2018-09-06T03:09:43.815Z,100272.81
2018-09-06T03:12:14.858Z,100273.95
2018-09-06T03:14:45.853Z,100274.48
2018-09-06T03:17:16.816Z,100276.38
2018-09-06T03:19:47.827Z,100279.65
2018-09-06T03:22:18.850Z,100264.48
2018-09-06T03:24:49.828Z,100264.60
2018-09-06T03:27:20.852Z,100270.80
2018-09-06T03:29:51.643Z,100267.84
2018-09-06T03:32:22.633Z,100263.13
2018-09-06T03:37:09.783Z,100264.68
2018-09-06T03:39:40.618Z,100261.22
2018-09-06T03:42:11.733Z,100261.87
2018-09-06T03:44:42.795Z,100266.47
2018-09-06T03:47:13.869Z,100259.41
2018-09-06T03:49:44.810Z,100264.80
2018-09-06T03:52:15.827Z,100265.97
2018-09-06T03:54:46.877Z,100261.64
2018-09-06T03:57:18.402Z,100268.37
2018-09-06T03:59:49.737Z,100270.27
2018-09-06T04:02:21.341Z,100252.56
2018-09-06T04:04:52.881Z,100264.80
2018-09-06T04:07:24.541Z,100258.38
2018-09-06T04:09:55.923Z,100262.14
2018-09-06T04:12:26.579Z,100262.63
2018-09-06T04:14:57.881Z,100266.09
2018-09-06T04:17:29.375Z,100262.48
2018-09-06T04:20:00.846Z,100258.53
2018-09-06T04:22:32.412Z,100259.48
2018-09-06T04:25:03.753Z,100262.62
2018-09-06T04:27:35.009Z,100255.98
2018-09-06T04:30:06.740Z,100258.30
2018-09-06T04:32:38.380Z,100262.94
2018-09-06T04:36:59.427Z,100255.22
2018-09-06T04:39:30.685Z,100250.63
2018-09-06T04:42:01.801Z,100255.45
2018-09-06T04:44:32.862Z,100255.22
2018-09-06T04:47:04.428Z,100250.70
2018-09-06T04:49:35.789Z,100249.86
2018-09-06T04:52:07.410Z,100251.53
2018-09-06T04:54:38.901Z,100251.11
2018-09-06T04:57:10.565Z,100248.69
2018-09-06T04:59:42.037Z,100247.97
2018-09-06T05:02:13.711Z,100248.91
2018-09-06T05:04:45.314Z,100247.97
2018-09-06T05:07:16.773Z,100245.53
2018-09-06T05:09:48.362Z,100250.39
2018-09-06T05:12:19.748Z,100242.08
2018-09-06T05:14:51.316Z,100255.74
2018-09-06T05:17:22.835Z,100258.97
2018-09-06T05:19:54.397Z,100255.74
2018-09-06T05:22:26.220Z,100252.48
2018-09-06T05:24:57.738Z,100248.80
2018-09-06T05:27:29.319Z,100252.59
2018-09-06T05:30:00.811Z,100261.52
2018-09-06T05:32:32.367Z,100253.43
2018-09-06T05:35:03.825Z,100255.64
2018-09-06T05:37:35.586Z,100260.19
2018-09-06T05:40:07.210Z,100255.11
2018-09-06T05:42:38.829Z,100250.81
2018-09-06T05:45:10.308Z,100249.38
2018-09-06T05:47:41.796Z,100245.16
2018-09-06T05:50:13.342Z,100237.45
2018-09-06T05:52:45.225Z,100243.25
2018-09-06T05:55:16.734Z,100241.55
2018-09-06T05:57:48.432Z,100248.95
2018-09-06T06:00:24.999Z,100245.16
2018-09-06T06:02:58.215Z,100242.42
2018-09-06T06:05:29.812Z,100242.31
2018-09-06T06:08:23.873Z,100243.80
2018-09-06T06:10:55.562Z,100247.25
2018-09-06T06:13:26.993Z,100247.59
2018-09-06T06:15:58.626Z,100241.17
2018-09-06T06:18:29.993Z,100239.38
2018-09-06T06:21:01.577Z,100242.84
2018-09-06T06:23:32.910Z,100243.86
2018-09-06T06:26:04.678Z,100249.87
2018-09-06T06:28:36.204Z,100242.61
2018-09-06T06:31:07.704Z,100233.27
2018-09-06T06:33:39.602Z,100240.71
2018-09-06T06:36:11.202Z,100238.31
2018-09-06T06:38:42.750Z,100232.42
2018-09-06T06:41:14.424Z,100232.23
2018-09-06T06:43:45.844Z,100229.27
2018-09-06T06:46:17.501Z,100227.48
2018-09-06T06:48:48.990Z,100226.23
2018-09-06T06:51:20.622Z,100223.07
2018-09-06T06:53:52.405Z,100218.13
2018-09-06T06:56:23.887Z,100226.67
2018-09-06T06:58:54.553Z,100217.09
2018-09-06T07:01:26.187Z,100223.30
2018-09-06T07:03:57.687Z,100222.45
2018-09-06T07:06:29.217Z,100223.40
2018-09-06T07:09:00.789Z,100218.91
2018-09-06T07:11:32.310Z,100211.95
2018-09-06T07:14:03.818Z,100220.58
2018-09-06T07:16:35.328Z,100220.36
2018-09-06T07:19:06.992Z,100215.83
2018-09-06T07:21:38.666Z,100215.64
2018-09-06T07:24:10.217Z,100218.79
2018-09-06T07:26:41.734Z,100210.58
2018-09-06T07:29:13.320Z,100208.91
2018-09-06T07:31:44.784Z,100207.84
2018-09-06T07:34:16.366Z,100202.58
2018-09-06T07:36:48.005Z,100212.59
2018-09-06T07:39:19.585Z,100208.78
2018-09-06T07:43:06.559Z,100208.39
2018-09-06T07:45:37.733Z,100206.91
2018-09-06T07:48:08.573Z,100199.86
2018-09-06T07:50:39.490Z,100199.00
2018-09-06T07:53:10.620Z,100204.16
2018-09-06T07:55:41.769Z,100199.86
2018-09-06T07:58:12.773Z,100197.73
2018-09-06T08:00:43.643Z,100200.36
2018-09-06T08:03:14.489Z,100199.44
2018-09-06T08:05:45.681Z,100195.20
2018-09-06T08:08:16.682Z,100191.00
2018-09-06T08:10:47.708Z,100190.38
2018-09-06T08:13:18.697Z,100189.23
2018-09-06T08:15:49.803Z,100197.53
2018-09-06T08:18:20.817Z,100191.12
2018-09-06T08:20:52.386Z,100192.48
2018-09-06T08:23:23.767Z,100186.07
2018-09-06T08:25:55.311Z,100185.23
2018-09-06T08:28:26.815Z,100190.59
2018-09-06T08:30:58.388Z,100189.85
2018-09-06T08:33:29.697Z,100191.75
2018-09-06T08:36:01.313Z,100184.38
2018-09-06T08:38:32.755Z,100185.75
2018-09-06T08:41:04.319Z,100181.12
2018-09-06T08:43:35.780Z,100188.47
2018-09-06T08:46:07.216Z,100183.20
2018-09-06T08:48:38.755Z,100183.20
2018-09-06T08:51:10.404Z,100185.00
2018-09-06T08:53:41.778Z,100186.39
2018-09-06T08:56:13.201Z,100179.53
2018-09-06T08:58:44.705Z,100182.60
2018-09-06T09:01:21.380Z,100177.42
2018-09-06T09:03:52.779Z,100181.95
2018-09-06T09:06:23.972Z,100168.89
2018-09-06T09:08:54.322Z,100170.48
2018-09-06T09:11:25.751Z,100168.17
2018-09-06T09:13:57.320Z,100154.50
2018-09-06T09:16:28.801Z,100164.48
2018-09-06T09:19:00.319Z,100159.54
2018-09-06T09:21:31.798Z,100155.20
2018-09-06T09:24:03.916Z,100158.37
2018-09-06T09:26:34.827Z,100147.85
2018-09-06T09:29:06.298Z,100143.74
2018-09-06T09:31:37.810Z,100135.43
2018-09-06T09:34:09.512Z,100136.59
2018-09-06T09:36:40.889Z,100139.64
2018-09-06T09:39:12.445Z,100133.03
2018-09-06T09:41:43.865Z,100132.16
2018-09-06T09:44:15.508Z,100130.79
2018-09-06T09:49:17.221Z,100120.18
2018-09-06T09:51:48.700Z,100115.44
2018-09-06T09:54:20.186Z,100114.60
2018-09-06T09:56:51.693Z,100117.54
2018-09-06T09:59:23.210Z,100112.40
2018-09-06T10:01:59.714Z,100111.33
2018-09-06T10:04:36.307Z,100107.77
2018-09-06T10:07:12.792Z,100109.66
2018-09-06T10:09:44.321Z,100104.49
2018-09-06T10:12:15.875Z,100103.12
2018-09-06T10:14:47.372Z,100091.87
2018-09-06T10:17:18.883Z,100097.84
2018-09-06T10:19:50.313Z,100091.87
2018-09-06T10:22:21.780Z,100084.61
2018-09-06T10:24:53.359Z,100085.14
2018-09-06T10:27:24.821Z,100080.70
2018-09-06T10:29:56.043Z,100073.55
2018-09-06T10:32:27.409Z,100075.03
2018-09-06T10:34:58.853Z,100070.92
2018-09-06T10:37:30.318Z,100068.19
2018-09-06T10:40:01.805Z,100065.45
2018-09-06T10:42:33.229Z,100061.11
2018-09-06T10:45:04.392Z,100065.85
2018-09-06T10:47:36.022Z,100063.34
2018-09-06T10:50:07.856Z,100059.44
2018-09-06T10:52:39.548Z,100054.37
2018-09-06T10:55:11.244Z,100047.53
2018-09-06T10:57:42.719Z,100054.91
2018-09-06T11:00:14.316Z,100045.62
2018-09-06T11:02:45.873Z,100049.66
2018-09-06T11:05:17.461Z,100042.39
2018-09-06T11:07:48.985Z,100044.49
2018-09-06T11:10:19.545Z,100029.20
2018-09-06T11:12:51.297Z,100030.07
2018-09-06T11:15:22.782Z,100029.20
2018-09-06T11:17:54.336Z,100028.47
2018-09-06T11:20:25.757Z,100019.73
2018-09-06T11:22:57.322Z,100003.64
2018-09-06T11:25:28.775Z,100013.75
2018-09-06T11:27:59.938Z,100012.78
2018-09-06T11:30:30.385Z,100008.67
2018-09-06T11:33:01.859Z,100006.14
2018-09-06T11:35:33.524Z,99998.47
2018-09-06T11:38:04.869Z,99998.27
2018-09-06T11:40:36.429Z,100000.77
2018-09-06T11:43:07.737Z,100002.77
2018-09-06T11:45:39.322Z,99998.76
2018-09-06T11:48:10.797Z,99995.28
2018-09-06T11:50:42.328Z,99987.61
2018-09-06T11:53:13.803Z,99980.77
2018-09-06T11:55:45.403Z,99986.44
2018-09-06T11:58:16.775Z,99977.40
2018-09-06T12:00:48.367Z,99978.77
2018-09-06T12:03:19.921Z,99981.20
2018-09-06T12:05:51.765Z,99982.34
2018-09-06T12:08:23.429Z,99979.59
2018-09-06T12:10:55.019Z,99973.59
2018-09-06T12:13:26.774Z,99969.81
2018-09-06T12:15:58.425Z,99969.81
2018-09-06T12:18:29.928Z,99965.08
2018-09-06T12:21:00.663Z,99965.81
2018-09-06T12:23:32.328Z,99966.98
2018-09-06T12:26:03.737Z,99965.38
2018-09-06T12:28:35.461Z,99963.81
2018-09-06T12:31:07.221Z,99961.91
2018-09-06T12:33:38.817Z,99951.48
2018-09-06T12:36:10.420Z,99949.81
2018-09-06T12:38:41.858Z,99950.66
2018-09-06T12:41:13.389Z,99939.37
2018-09-06T12:43:45.218Z,99936.14
2018-09-06T12:46:16.758Z,99941.70
2018-09-06T12:48:48.444Z,99935.06
2018-09-06T12:51:19.992Z,99942.08
2018-09-06T12:53:52.239Z,99930.09
2018-09-06T12:56:23.748Z,99935.98
2018-09-06T12:58:55.396Z,99921.66
2018-09-06T13:01:26.993Z,99917.25
2018-09-06T13:03:58.680Z,99910.70
2018-09-06T13:06:30.209Z,99920.59
2018-09-06T13:09:01.790Z,99914.30
2018-09-06T13:11:33.446Z,99913.12
2018-09-06T13:14:04.964Z,99903.42
2018-09-06T13:16:35.598Z,99908.90
2018-09-06T13:19:07.051Z,99899.02
2018-09-06T13:21:38.751Z,99898.69
2018-09-06T13:24:10.412Z,99889.11
2018-09-06T13:26:41.817Z,99882.27
2018-09-06T13:29:13.316Z,99886.70
2018-09-06T13:31:44.854Z,99881.13
2018-09-06T13:34:16.482Z,99883.87
2018-09-06T13:36:47.895Z,99879.97
2018-09-06T13:39:19.418Z,99881.04
2018-09-06T13:41:50.906Z,99874.82
2018-09-06T13:44:22.610Z,99877.56
2018-09-06T13:46:54.324Z,99881.97
2018-09-06T13:49:25.817Z,99875.33
2018-09-06T13:51:57.234Z,99870.39
2018-09-06T13:54:28.726Z,99865.24
2018-09-06T13:57:00.431Z,99864.17
2018-09-06T13:59:31.842Z,99857.95
2018-09-06T14:02:03.611Z,99860.98
2018-09-06T14:04:35.014Z,99858.25
2018-09-06T14:07:06.685Z,99859.95
2018-09-06T14:09:38.224Z,99852.27
2018-09-06T14:12:09.824Z,99852.69
2018-09-06T14:14:41.677Z,99847.21
2018-09-06T14:17:13.198Z,99846.91
2018-09-06T14:19:44.776Z,99838.37
2018-09-06T14:22:16.341Z,99841.20
2018-09-06T14:24:47.767Z,99833.22
2018-09-06T14:27:19.316Z,99837.09
2018-09-06T14:29:50.856Z,99835.72
2018-09-06T14:32:22.376Z,99832.24
2018-09-06T14:34:53.850Z,99824.03
2018-09-06T14:37:25.404Z,99811.53
2018-09-06T14:39:57.080Z,99814.98
2018-09-06T14:42:28.745Z,99811.41
2018-09-06T14:44:59.904Z,99807.93
2018-09-06T14:47:31.436Z,99809.83
2018-09-06T14:50:02.906Z,99802.87
2018-09-06T14:52:34.428Z,99808.67
2018-09-06T14:55:05.810Z,99806.47
2018-09-06T14:57:37.474Z,99805.11
2018-09-06T15:00:09.238Z,99798.77
2018-09-06T15:02:40.786Z,99799.39
2018-09-06T15:05:12.381Z,99793.61
2018-09-06T15:07:43.858Z,99794.78
2018-09-06T15:10:15.430Z,99792.25
2018-09-06T15:12:47.610Z,99797.72
2018-09-06T15:15:19.232Z,99792.55
2018-09-06T15:17:50.717Z,99792.38
2018-09-06T15:20:22.387Z,99784.87
2018-09-06T15:22:53.775Z,99789.09
2018-09-06T15:25:25.330Z,99781.92
2018-09-06T15:27:56.768Z,99784.66
2018-09-06T15:30:28.354Z,99783.91
2018-09-06T15:32:59.754Z,99783.91
2018-09-06T15:35:31.458Z,99781.80
2018-09-06T15:38:02.774Z,99778.44
2018-09-06T15:40:34.311Z,99777.07
2018-09-06T15:43:05.759Z,99778.68
2018-09-06T15:45:37.420Z,99773.70
2018-09-06T15:48:08.830Z,99768.77
2018-09-06T15:50:40.320Z,99768.11
2018-09-06T15:53:11.842Z,99772.09
2018-09-06T15:55:43.427Z,99771.23
2018-09-06T15:58:14.906Z,99771.77
2018-09-06T16:00:45.760Z,99770.55
2018-09-06T16:03:17.402Z,99760.77
2018-09-06T16:05:48.996Z,99770.97
2018-09-06T16:08:20.502Z,99766.03
2018-09-06T16:10:51.985Z,99754.04
2018-09-06T16:13:23.769Z,99757.61
2018-09-06T16:15:55.767Z,99754.12
2018-09-06T16:18:27.415Z,99759.27
2018-09-06T16:20:59.205Z,99761.39
2018-09-06T16:23:30.721Z,99762.76
2018-09-06T16:26:02.419Z,99756.78
2018-09-06T16:28:33.785Z,99756.45
2018-09-06T16:31:05.328Z,99754.22
2018-09-06T16:33:36.868Z,99759.70
2018-09-06T16:36:08.739Z,99756.66
2018-09-06T16:38:40.412Z,99761.30
2018-09-06T16:41:12.652Z,99757.70
2018-09-06T16:43:44.218Z,99758.65
2018-09-06T16:46:15.784Z,99751.93
2018-09-06T16:48:47.332Z,99751.72
2018-09-06T16:51:19.219Z,99752.55
2018-09-06T16:53:50.746Z,99751.19
2018-09-06T16:56:22.397Z,99753.92
2018-09-06T16:58:53.829Z,99752.55
2018-09-06T17:01:25.393Z,99754.88
2018-09-06T17:03:56.887Z,99744.64
2018-09-06T17:06:28.482Z,99747.70
2018-09-06T17:08:59.994Z,99744.13
2018-09-06T17:13:10.852Z,99739.31
2018-09-06T17:15:41.864Z,99732.23
2018-09-06T17:18:13.456Z,99737.17
2018-09-06T17:20:44.665Z,99734.76
2018-09-06T17:23:15.754Z,99728.66
2018-09-06T17:25:46.847Z,99732.85
2018-09-06T17:28:17.862Z,99732.02
2018-09-06T17:30:48.887Z,99736.13
2018-09-06T17:33:20.281Z,99733.39
2018-09-06T17:35:51.713Z,99741.60
2018-09-06T17:38:23.215Z,99742.14
2018-09-06T17:40:54.664Z,99740.15
2018-09-06T17:43:26.214Z,99738.03
2018-09-06T17:45:58.216Z,99743.18
2018-09-06T17:48:30.593Z,99746.75
2018-09-06T17:51:02.737Z,99743.51
2018-09-06T17:53:34.291Z,99748.13
2018-09-06T17:56:05.652Z,99750.86
2018-09-06T17:58:36.911Z,99745.38
2018-09-06T18:01:27.554Z,99746.99
2018-09-06T18:03:58.894Z,99748.81
2018-09-06T18:06:30.490Z,99749.94
2018-09-06T18:09:02.036Z,99751.02
2018-09-06T18:11:33.695Z,99753.21
2018-09-06T18:14:04.977Z,99753.75
2018-09-06T18:16:35.521Z,99754.05
2018-09-06T18:19:06.878Z,99756.48
2018-09-06T18:21:38.332Z,99752.67
2018-09-06T18:24:09.845Z,99758.77
2018-09-06T18:26:41.310Z,99756.24
2018-09-06T18:29:14.705Z,99755.95
2018-09-06T18:31:57.419Z,99763.33
2018-09-06T18:34:28.790Z,99769.64
2018-09-06T18:36:59.815Z,99764.25
2018-09-06T18:39:30.877Z,99766.45
2018-09-06T18:42:02.507Z,99773.83
2018-09-06T18:44:33.978Z,99767.19
2018-09-06T18:47:06.530Z,99773.20
2018-09-06T18:49:37.899Z,99768.56
2018-09-06T18:52:09.545Z,99775.83
2018-09-06T18:54:40.911Z,99773.09
2018-09-06T18:57:12.334Z,99768.66
2018-09-06T18:59:43.700Z,99763.17
2018-09-06T19:02:15.536Z,99765.91
2018-09-06T19:04:46.748Z,99775.83
2018-09-06T19:07:19.359Z,99762.25
2018-09-06T19:09:51.510Z,99774.75
2018-09-06T19:12:23.223Z,99772.46
2018-09-06T19:14:54.694Z,99769.42
2018-09-06T19:17:26.303Z,99761.81
2018-09-06T19:19:57.742Z,99766.45
2018-09-06T19:22:29.204Z,99765.41
2018-09-06T19:25:01.327Z,99770.89
2018-09-06T19:27:32.779Z,99762.88
2018-09-06T19:30:04.317Z,99763.30
2018-09-06T19:32:35.758Z,99760.98
2018-09-06T19:35:07.408Z,99766.98
2018-09-06T19:37:38.775Z,99765.32
2018-09-06T19:40:10.204Z,99751.76
2018-09-06T19:42:41.793Z,99762.25
2018-09-06T19:45:13.480Z,99764.70
2018-09-06T19:47:44.781Z,99760.59
2018-09-06T19:50:18.225Z,99753.42
2018-09-06T19:52:49.686Z,99754.79
2018-09-06T19:55:21.211Z,99753.21
2018-09-06T19:57:52.719Z,99748.56
2018-09-06T20:00:23.911Z,99754.38
2018-09-06T20:02:55.311Z,99748.56
2018-09-06T20:05:26.752Z,99745.53
2018-09-06T20:07:57.867Z,99748.27
2018-09-06T20:10:29.371Z,99748.27
2018-09-06T20:13:00.827Z,99741.10
2018-09-06T20:15:32.216Z,99742.55
2018-09-06T20:18:03.758Z,99748.03
2018-09-06T20:20:35.297Z,99751.19
2018-09-06T20:23:06.611Z,99746.16
2018-09-06T20:25:38.395Z,99746.16
2018-09-06T20:28:09.936Z,99749.19
2018-09-06T20:30:41.201Z,99748.45
2018-09-06T20:33:12.645Z,99750.44
2018-09-06T20:35:44.200Z,99747.70
2018-09-06T20:38:15.786Z,99744.75
2018-09-06T20:40:47.398Z,99755.49
2018-09-06T20:46:00.207Z,99769.27
2018-09-06T20:48:31.805Z,99767.37
2018-09-06T20:51:02.633Z,99769.44
2018-09-06T20:53:33.489Z,99766.91
2018-09-06T20:56:04.642Z,99769.53
2018-09-06T20:58:35.707Z,99764.64
2018-09-06T21:01:06.697Z,99767.08
2018-09-06T21:03:37.730Z,99759.49
2018-09-06T21:06:08.835Z,99759.34
2018-09-06T21:08:39.841Z,99761.16
2018-09-06T21:11:10.815Z,99777.30
2018-09-06T21:13:41.564Z,99771.36
2018-09-06T21:16:12.487Z,99769.25
2018-09-06T21:18:43.676Z,99767.42
2018-09-06T21:21:14.732Z,99757.97
2018-09-06T21:23:45.807Z,99755.72
2018-09-06T21:26:16.815Z,99745.97
2018-09-06T21:28:47.844Z,99759.91
2018-09-06T21:31:18.807Z,99752.53
2018-09-06T21:33:50.377Z,99754.06
2018-09-06T21:36:21.663Z,99753.36
2018-09-06T21:38:53.191Z,99749.63
2018-09-06T21:41:24.680Z,99751.24
2018-09-06T21:43:56.186Z,99751.08
2018-09-06T21:46:27.716Z,99744.48
2018-09-06T21:48:59.421Z,99741.03
2018-09-06T21:51:30.893Z,99739.88
2018-09-06T21:54:02.588Z,99739.66
2018-09-06T21:56:33.981Z,99742.41
2018-09-06T21:59:05.532Z,99734.56
2018-09-06T22:01:36.902Z,99733.44
2018-09-06T22:04:09.361Z,99730.45
2018-09-06T22:06:40.986Z,99724.02
2018-09-06T22:09:14.195Z,99725.76
2018-09-06T22:11:45.759Z,99729.33
2018-09-06T22:14:17.308Z,99729.70
2018-09-06T22:16:48.767Z,99733.52
2018-09-06T22:19:20.376Z,99727.42
2018-09-06T22:21:51.718Z,99735.05
2018-09-06T22:24:23.281Z,99736.26
2018-09-06T22:26:54.866Z,99731.56
2018-09-06T22:29:26.325Z,99732.47
2018-09-06T22:31:57.832Z,99723.77
2018-09-06T22:34:29.432Z,99720.66
2018-09-06T22:37:01.220Z,99717.25
2018-09-06T22:39:32.726Z,99714.97
2018-09-06T22:42:04.736Z,99709.48
2018-09-06T22:44:35.809Z,99703.09
2018-09-06T22:47:07.377Z,99708.36
2018-09-06T22:49:38.884Z,99712.84
2018-09-06T22:52:10.441Z,99730.11
2018-09-06T22:54:41.711Z,99733.09
2018-09-06T22:57:13.332Z,99725.14
2018-09-06T22:59:44.769Z,99744.34
2018-09-06T23:02:16.442Z,99739.94
2018-09-06T23:04:47.792Z,99740.16
2018-09-06T23:07:19.431Z,99740.31
2018-09-06T23:09:50.797Z,99739.02
2018-09-06T23:12:22.380Z,99744.22
2018-09-06T23:14:53.856Z,99743.35
2018-09-06T23:17:25.523Z,99746.95
2018-09-06T23:19:57.217Z,99756.55
2018-09-06T23:22:28.658Z,99749.23
2018-09-06T23:25:00.203Z,99764.68
2018-09-06T23:27:31.704Z,99759.58
2018-09-06T23:30:03.004Z,99757.67
2018-09-06T23:32:34.702Z,99763.84
2018-09-06T23:35:06.222Z,99763.26
2018-09-06T23:37:37.705Z,99764.68
2018-09-06T23:40:09.151Z,99769.45
2018-09-06T23:42:40.694Z,99757.08
2018-09-06T23:45:12.258Z,99755.17
2018-09-06T23:47:43.796Z,99751.35
2018-09-06T23:50:15.308Z,99744.88
2018-09-06T23:52:46.777Z,99756.75
2018-09-06T23:55:18.324Z,99752.34
2018-09-06T23:57:49.999Z,99754.09
